sensor_id;sensor_type;location;lat;lon;timestamp;P1;durP1;ratioP1;P2;durP2;ratioP2
56893;SDS011;43392;50.078;13.704;2024-03-08T00:00:03;45.35;;;23.88;;
56893;SDS011;43392;50.078;13.704;2024-03-08T00:02:35;47.33;;;24.42;;
56893;SDS011;43392;50.078;13.704;2024-03-08T00:05:02;47.08;;;25.42;;
56893;SDS011;43392;50.078;13.704;2024-03-08T00:07:29;44.97;;;24.58;;
56893;SDS011;43392;50.078;13.704;2024-03-08T00:09:55;46.15;;;25.05;;
56893;SDS011;43392;50.078;13.704;2024-03-08T00:12:23;46.45;;;24.98;;
56893;SDS011;43392;50.078;13.704;2024-03-08T00:14:52;47.90;;;26.27;;
56893;SDS011;43392;50.078;13.704;2024-03-08T00:17:19;47.60;;;27.42;;
56893;SDS011;43392;50.078;13.704;2024-03-08T00:19:47;48.42;;;26.83;;
56893;SDS011;43392;50.078;13.704;2024-03-08T00:22:14;52.70;;;28.00;;
56893;SDS011;43392;50.078;13.704;2024-03-08T00:24:41;52.90;;;28.33;;
56893;SDS011;43392;50.078;13.704;2024-03-08T00:27:08;52.70;;;27.35;;
56893;SDS011;43392;50.078;13.704;2024-03-08T00:29:36;48.70;;;27.60;;
56893;SDS011;43392;50.078;13.704;2024-03-08T00:32:04;53.22;;;28.35;;
56893;SDS011;43392;50.078;13.704;2024-03-08T00:34:32;47.00;;;26.52;;
56893;SDS011;43392;50.078;13.704;2024-03-08T00:37:01;47.28;;;26.10;;
56893;SDS011;43392;50.078;13.704;2024-03-08T00:39:28;49.42;;;26.60;;
56893;SDS011;43392;50.078;13.704;2024-03-08T00:41:55;52.35;;;28.20;;
56893;SDS011;43392;50.078;13.704;2024-03-08T00:44:21;54.28;;;29.00;;
56893;SDS011;43392;50.078;13.704;2024-03-08T00:46:49;51.53;;;28.27;;
56893;SDS011;43392;50.078;13.704;2024-03-08T00:49:16;50.60;;;27.17;;
56893;SDS011;43392;50.078;13.704;2024-03-08T00:51:43;51.28;;;26.95;;
56893;SDS011;43392;50.078;13.704;2024-03-08T00:54:09;46.47;;;26.98;;
56893;SDS011;43392;50.078;13.704;2024-03-08T00:56:36;46.33;;;26.60;;
56893;SDS011;43392;50.078;13.704;2024-03-08T00:59:04;56.58;;;28.75;;
56893;SDS011;43392;50.078;13.704;2024-03-08T01:01:31;50.35;;;26.65;;
56893;SDS011;43392;50.078;13.704;2024-03-08T01:03:59;49.22;;;28.05;;
56893;SDS011;43392;50.078;13.704;2024-03-08T01:06:26;49.13;;;28.60;;
56893;SDS011;43392;50.078;13.704;2024-03-08T01:08:53;51.63;;;27.67;;
56893;SDS011;43392;50.078;13.704;2024-03-08T01:11:19;50.47;;;27.80;;
56893;SDS011;43392;50.078;13.704;2024-03-08T01:13:46;51.97;;;29.00;;
56893;SDS011;43392;50.078;13.704;2024-03-08T01:16:14;51.45;;;27.65;;
56893;SDS011;43392;50.078;13.704;2024-03-08T01:18:41;49.90;;;28.10;;
56893;SDS011;43392;50.078;13.704;2024-03-08T01:21:09;52.00;;;27.88;;
56893;SDS011;43392;50.078;13.704;2024-03-08T01:23:36;48.80;;;27.33;;
56893;SDS011;43392;50.078;13.704;2024-03-08T01:26:03;50.70;;;27.02;;
56893;SDS011;43392;50.078;13.704;2024-03-08T01:28:31;52.28;;;28.27;;
56893;SDS011;43392;50.078;13.704;2024-03-08T01:30:59;52.92;;;27.92;;
56893;SDS011;43392;50.078;13.704;2024-03-08T01:33:26;55.67;;;28.27;;
56893;SDS011;43392;50.078;13.704;2024-03-08T01:35:53;52.38;;;28.85;;
56893;SDS011;43392;50.078;13.704;2024-03-08T01:38:21;49.00;;;26.75;;
56893;SDS011;43392;50.078;13.704;2024-03-08T01:40:48;53.13;;;27.58;;
56893;SDS011;43392;50.078;13.704;2024-03-08T01:43:16;49.03;;;26.52;;
56893;SDS011;43392;50.078;13.704;2024-03-08T01:45:44;52.83;;;27.88;;
56893;SDS011;43392;50.078;13.704;2024-03-08T01:48:11;54.42;;;29.08;;
56893;SDS011;43392;50.078;13.704;2024-03-08T01:50:37;53.38;;;28.30;;
56893;SDS011;43392;50.078;13.704;2024-03-08T01:53:04;56.47;;;28.50;;
56893;SDS011;43392;50.078;13.704;2024-03-08T01:55:33;49.70;;;28.05;;
56893;SDS011;43392;50.078;13.704;2024-03-08T01:58:00;51.92;;;29.08;;
56893;SDS011;43392;50.078;13.704;2024-03-08T02:00:29;51.25;;;28.08;;
56893;SDS011;43392;50.078;13.704;2024-03-08T02:02:56;51.55;;;28.60;;
56893;SDS011;43392;50.078;13.704;2024-03-08T02:05:23;55.60;;;29.83;;
56893;SDS011;43392;50.078;13.704;2024-03-08T02:07:50;50.95;;;27.88;;
56893;SDS011;43392;50.078;13.704;2024-03-08T02:10:17;56.17;;;28.77;;
56893;SDS011;43392;50.078;13.704;2024-03-08T02:12:45;50.97;;;27.65;;
56893;SDS011;43392;50.078;13.704;2024-03-08T02:15:13;50.97;;;27.98;;
56893;SDS011;43392;50.078;13.704;2024-03-08T02:17:40;51.63;;;27.50;;
56893;SDS011;43392;50.078;13.704;2024-03-08T02:20:07;55.08;;;28.10;;
56893;SDS011;43392;50.078;13.704;2024-03-08T02:22:37;53.40;;;28.02;;
56893;SDS011;43392;50.078;13.704;2024-03-08T02:25:04;57.80;;;30.27;;
56893;SDS011;43392;50.078;13.704;2024-03-08T02:27:32;53.25;;;28.63;;
56893;SDS011;43392;50.078;13.704;2024-03-08T02:29:58;49.63;;;27.85;;
56893;SDS011;43392;50.078;13.704;2024-03-08T02:32:25;61.10;;;31.85;;
56893;SDS011;43392;50.078;13.704;2024-03-08T02:34:55;65.32;;;34.13;;
56893;SDS011;43392;50.078;13.704;2024-03-08T02:37:25;58.70;;;30.52;;
56893;SDS011;43392;50.078;13.704;2024-03-08T02:39:53;63.65;;;33.47;;
56893;SDS011;43392;50.078;13.704;2024-03-08T02:42:20;67.57;;;34.13;;
56893;SDS011;43392;50.078;13.704;2024-03-08T02:44:48;66.85;;;33.10;;
56893;SDS011;43392;50.078;13.704;2024-03-08T02:47:14;64.75;;;33.08;;
56893;SDS011;43392;50.078;13.704;2024-03-08T02:49:41;62.10;;;32.83;;
56893;SDS011;43392;50.078;13.704;2024-03-08T02:52:07;58.50;;;30.02;;
56893;SDS011;43392;50.078;13.704;2024-03-08T02:54:34;57.80;;;29.95;;
56893;SDS011;43392;50.078;13.704;2024-03-08T02:57:03;55.33;;;29.02;;
56893;SDS011;43392;50.078;13.704;2024-03-08T02:59:32;58.35;;;31.00;;
56893;SDS011;43392;50.078;13.704;2024-03-08T03:01:59;59.00;;;31.38;;
56893;SDS011;43392;50.078;13.704;2024-03-08T03:04:26;56.53;;;28.50;;
56893;SDS011;43392;50.078;13.704;2024-03-08T03:06:52;59.55;;;32.20;;
56893;SDS011;43392;50.078;13.704;2024-03-08T03:09:19;59.60;;;31.42;;
56893;SDS011;43392;50.078;13.704;2024-03-08T03:11:49;60.22;;;33.42;;
56893;SDS011;43392;50.078;13.704;2024-03-08T03:14:17;69.40;;;33.40;;
56893;SDS011;43392;50.078;13.704;2024-03-08T03:16:44;74.22;;;35.63;;
56893;SDS011;43392;50.078;13.704;2024-03-08T03:19:11;131.00;;;49.85;;
56893;SDS011;43392;50.078;13.704;2024-03-08T03:21:37;105.07;;;42.40;;
56893;SDS011;43392;50.078;13.704;2024-03-08T03:24:04;96.05;;;39.60;;
56893;SDS011;43392;50.078;13.704;2024-03-08T03:29:02;263.48;;;81.25;;
56893;SDS011;43392;50.078;13.704;2024-03-08T03:31:32;68.35;;;32.20;;
56893;SDS011;43392;50.078;13.704;2024-03-08T03:33:59;73.40;;;34.90;;
56893;SDS011;43392;50.078;13.704;2024-03-08T03:36:27;57.60;;;29.98;;
56893;SDS011;43392;50.078;13.704;2024-03-08T03:38:54;62.55;;;31.80;;
56893;SDS011;43392;50.078;13.704;2024-03-08T03:41:30;57.72;;;30.40;;
56893;SDS011;43392;50.078;13.704;2024-03-08T03:43:56;58.50;;;31.48;;
56893;SDS011;43392;50.078;13.704;2024-03-08T03:46:24;60.72;;;31.00;;
56893;SDS011;43392;50.078;13.704;2024-03-08T03:48:53;54.42;;;30.52;;
56893;SDS011;43392;50.078;13.704;2024-03-08T03:51:20;55.10;;;31.13;;
56893;SDS011;43392;50.078;13.704;2024-03-08T03:53:47;60.00;;;32.40;;
56893;SDS011;43392;50.078;13.704;2024-03-08T03:56:13;58.88;;;32.03;;
56893;SDS011;43392;50.078;13.704;2024-03-08T03:58:40;58.08;;;30.83;;
56893;SDS011;43392;50.078;13.704;2024-03-08T04:01:07;57.05;;;30.10;;
56893;SDS011;43392;50.078;13.704;2024-03-08T04:03:34;56.13;;;30.67;;
56893;SDS011;43392;50.078;13.704;2024-03-08T04:06:03;57.03;;;30.90;;
56893;SDS011;43392;50.078;13.704;2024-03-08T04:08:30;58.50;;;31.77;;
56893;SDS011;43392;50.078;13.704;2024-03-08T04:10:59;56.08;;;30.48;;
56893;SDS011;43392;50.078;13.704;2024-03-08T04:13:26;54.88;;;31.05;;
56893;SDS011;43392;50.078;13.704;2024-03-08T04:15:52;54.38;;;28.55;;
56893;SDS011;43392;50.078;13.704;2024-03-08T04:18:19;55.55;;;29.77;;
56893;SDS011;43392;50.078;13.704;2024-03-08T04:20:46;58.38;;;30.48;;
56893;SDS011;43392;50.078;13.704;2024-03-08T04:23:14;53.90;;;31.25;;
56893;SDS011;43392;50.078;13.704;2024-03-08T04:25:41;52.42;;;30.15;;
56893;SDS011;43392;50.078;13.704;2024-03-08T04:28:08;60.22;;;29.75;;
56893;SDS011;43392;50.078;13.704;2024-03-08T04:30:36;57.78;;;30.08;;
56893;SDS011;43392;50.078;13.704;2024-03-08T04:33:04;55.78;;;30.17;;
56893;SDS011;43392;50.078;13.704;2024-03-08T04:35:31;53.92;;;30.05;;
56893;SDS011;43392;50.078;13.704;2024-03-08T04:37:58;53.90;;;30.90;;
56893;SDS011;43392;50.078;13.704;2024-03-08T04:40:26;61.30;;;30.85;;
56893;SDS011;43392;50.078;13.704;2024-03-08T04:42:52;57.17;;;30.45;;
56893;SDS011;43392;50.078;13.704;2024-03-08T04:45:19;55.50;;;30.13;;
56893;SDS011;43392;50.078;13.704;2024-03-08T04:47:46;57.30;;;29.02;;
56893;SDS011;43392;50.078;13.704;2024-03-08T04:50:13;55.92;;;30.27;;
56893;SDS011;43392;50.078;13.704;2024-03-08T04:52:40;52.67;;;29.85;;
56893;SDS011;43392;50.078;13.704;2024-03-08T04:55:06;55.85;;;29.73;;
56893;SDS011;43392;50.078;13.704;2024-03-08T04:57:35;62.40;;;31.25;;
56893;SDS011;43392;50.078;13.704;2024-03-08T05:00:02;54.42;;;30.35;;
56893;SDS011;43392;50.078;13.704;2024-03-08T05:02:29;51.83;;;28.65;;
56893;SDS011;43392;50.078;13.704;2024-03-08T05:04:57;59.17;;;30.70;;
56893;SDS011;43392;50.078;13.704;2024-03-08T05:07:23;52.38;;;28.63;;
56893;SDS011;43392;50.078;13.704;2024-03-08T05:09:51;59.40;;;30.52;;
56893;SDS011;43392;50.078;13.704;2024-03-08T05:12:17;61.33;;;30.88;;
56893;SDS011;43392;50.078;13.704;2024-03-08T05:14:46;64.03;;;31.38;;
56893;SDS011;43392;50.078;13.704;2024-03-08T05:17:14;54.00;;;30.10;;
56893;SDS011;43392;50.078;13.704;2024-03-08T05:19:41;60.90;;;32.17;;
56893;SDS011;43392;50.078;13.704;2024-03-08T05:22:07;56.90;;;31.15;;
56893;SDS011;43392;50.078;13.704;2024-03-08T05:24:34;64.38;;;32.67;;
56893;SDS011;43392;50.078;13.704;2024-03-08T05:27:01;57.22;;;30.40;;
56893;SDS011;43392;50.078;13.704;2024-03-08T05:29:28;56.10;;;30.83;;
56893;SDS011;43392;50.078;13.704;2024-03-08T05:31:56;62.80;;;31.50;;
56893;SDS011;43392;50.078;13.704;2024-03-08T05:34:24;59.20;;;30.48;;
56893;SDS011;43392;50.078;13.704;2024-03-08T05:36:53;56.35;;;30.27;;
56893;SDS011;43392;50.078;13.704;2024-03-08T05:39:20;60.83;;;31.13;;
56893;SDS011;43392;50.078;13.704;2024-03-08T05:41:47;61.33;;;31.70;;
56893;SDS011;43392;50.078;13.704;2024-03-08T05:44:14;58.83;;;30.80;;
56893;SDS011;43392;50.078;13.704;2024-03-08T05:46:42;59.03;;;31.88;;
56893;SDS011;43392;50.078;13.704;2024-03-08T05:49:10;57.60;;;32.97;;
56893;SDS011;43392;50.078;13.704;2024-03-08T05:51:37;57.03;;;31.25;;
56893;SDS011;43392;50.078;13.704;2024-03-08T05:54:05;57.45;;;33.40;;
56893;SDS011;43392;50.078;13.704;2024-03-08T05:56:35;57.13;;;31.50;;
56893;SDS011;43392;50.078;13.704;2024-03-08T05:59:03;56.63;;;30.80;;
56893;SDS011;43392;50.078;13.704;2024-03-08T06:01:30;57.95;;;31.45;;
56893;SDS011;43392;50.078;13.704;2024-03-08T06:03:57;58.72;;;31.55;;
56893;SDS011;43392;50.078;13.704;2024-03-08T06:06:25;59.63;;;31.35;;
56893;SDS011;43392;50.078;13.704;2024-03-08T06:08:52;62.83;;;31.10;;
56893;SDS011;43392;50.078;13.704;2024-03-08T06:11:21;59.60;;;32.63;;
56893;SDS011;43392;50.078;13.704;2024-03-08T06:13:48;59.60;;;32.65;;
56893;SDS011;43392;50.078;13.704;2024-03-08T06:16:15;59.63;;;34.60;;
56893;SDS011;43392;50.078;13.704;2024-03-08T06:18:42;63.38;;;34.72;;
56893;SDS011;43392;50.078;13.704;2024-03-08T06:21:08;63.45;;;35.65;;
56893;SDS011;43392;50.078;13.704;2024-03-08T06:23:38;63.83;;;35.38;;
56893;SDS011;43392;50.078;13.704;2024-03-08T06:26:04;58.83;;;32.03;;
56893;SDS011;43392;50.078;13.704;2024-03-08T06:28:31;63.85;;;35.42;;
56893;SDS011;43392;50.078;13.704;2024-03-08T06:30:58;63.40;;;33.70;;
56893;SDS011;43392;50.078;13.704;2024-03-08T06:33:25;56.60;;;30.85;;
56893;SDS011;43392;50.078;13.704;2024-03-08T06:35:52;57.95;;;31.85;;
56893;SDS011;43392;50.078;13.704;2024-03-08T06:38:19;57.67;;;31.58;;
56893;SDS011;43392;50.078;13.704;2024-03-08T06:40:47;60.47;;;30.92;;
56893;SDS011;43392;50.078;13.704;2024-03-08T06:43:14;57.38;;;30.83;;
56893;SDS011;43392;50.078;13.704;2024-03-08T06:45:41;59.97;;;32.30;;
56893;SDS011;43392;50.078;13.704;2024-03-08T06:48:13;55.33;;;31.73;;
56893;SDS011;43392;50.078;13.704;2024-03-08T06:50:40;60.83;;;31.10;;
56893;SDS011;43392;50.078;13.704;2024-03-08T06:53:06;59.58;;;32.03;;
56893;SDS011;43392;50.078;13.704;2024-03-08T06:55:33;54.58;;;30.33;;
56893;SDS011;43392;50.078;13.704;2024-03-08T06:58:01;60.88;;;32.17;;
56893;SDS011;43392;50.078;13.704;2024-03-08T07:00:28;58.33;;;31.48;;
56893;SDS011;43392;50.078;13.704;2024-03-08T07:02:55;52.88;;;29.25;;
56893;SDS011;43392;50.078;13.704;2024-03-08T07:05:25;51.55;;;29.25;;
56893;SDS011;43392;50.078;13.704;2024-03-08T07:07:52;48.83;;;28.50;;
56893;SDS011;43392;50.078;13.704;2024-03-08T07:10:19;51.88;;;26.80;;
56893;SDS011;43392;50.078;13.704;2024-03-08T07:12:56;46.08;;;25.92;;
56893;SDS011;43392;50.078;13.704;2024-03-08T07:15:23;49.50;;;27.27;;
56893;SDS011;43392;50.078;13.704;2024-03-08T07:17:50;46.75;;;26.27;;
56893;SDS011;43392;50.078;13.704;2024-03-08T07:20:17;47.17;;;24.85;;
56893;SDS011;43392;50.078;13.704;2024-03-08T07:22:44;49.20;;;26.25;;
56893;SDS011;43392;50.078;13.704;2024-03-08T07:25:12;50.65;;;25.90;;
56893;SDS011;43392;50.078;13.704;2024-03-08T07:27:47;45.35;;;24.38;;
56893;SDS011;43392;50.078;13.704;2024-03-08T07:30:15;46.22;;;26.00;;
56893;SDS011;43392;50.078;13.704;2024-03-08T07:32:59;44.00;;;24.98;;
56893;SDS011;43392;50.078;13.704;2024-03-08T07:35:27;48.65;;;26.58;;
56893;SDS011;43392;50.078;13.704;2024-03-08T07:37:54;55.63;;;27.52;;
56893;SDS011;43392;50.078;13.704;2024-03-08T07:40:21;50.92;;;27.65;;
56893;SDS011;43392;50.078;13.704;2024-03-08T07:42:48;48.30;;;25.42;;
56893;SDS011;43392;50.078;13.704;2024-03-08T07:45:16;47.35;;;25.52;;
56893;SDS011;43392;50.078;13.704;2024-03-08T07:47:43;46.63;;;24.90;;
56893;SDS011;43392;50.078;13.704;2024-03-08T07:50:10;48.58;;;26.20;;
56893;SDS011;43392;50.078;13.704;2024-03-08T07:52:40;43.17;;;23.55;;
56893;SDS011;43392;50.078;13.704;2024-03-08T07:55:07;43.40;;;24.33;;
56893;SDS011;43392;50.078;13.704;2024-03-08T07:57:35;43.25;;;24.08;;
56893;SDS011;43392;50.078;13.704;2024-03-08T08:00:03;42.78;;;23.90;;
56893;SDS011;43392;50.078;13.704;2024-03-08T08:02:34;44.78;;;23.35;;
56893;SDS011;43392;50.078;13.704;2024-03-08T08:05:01;41.45;;;23.45;;
56893;SDS011;43392;50.078;13.704;2024-03-08T08:07:29;40.00;;;22.45;;
56893;SDS011;43392;50.078;13.704;2024-03-08T08:09:56;42.25;;;22.80;;
56893;SDS011;43392;50.078;13.704;2024-03-08T08:12:23;39.30;;;21.13;;
56893;SDS011;43392;50.078;13.704;2024-03-08T08:14:50;39.95;;;22.33;;
56893;SDS011;43392;50.078;13.704;2024-03-08T08:17:16;40.63;;;21.67;;
56893;SDS011;43392;50.078;13.704;2024-03-08T08:19:44;41.60;;;21.65;;
56893;SDS011;43392;50.078;13.704;2024-03-08T08:22:11;39.80;;;21.67;;
56893;SDS011;43392;50.078;13.704;2024-03-08T08:24:38;38.90;;;22.20;;
56893;SDS011;43392;50.078;13.704;2024-03-08T08:27:05;40.00;;;21.65;;
56893;SDS011;43392;50.078;13.704;2024-03-08T08:29:31;40.15;;;21.73;;
56893;SDS011;43392;50.078;13.704;2024-03-08T08:31:59;36.08;;;20.90;;
56893;SDS011;43392;50.078;13.704;2024-03-08T08:34:25;37.90;;;20.60;;
56893;SDS011;43392;50.078;13.704;2024-03-08T08:36:53;38.60;;;19.75;;
56893;SDS011;43392;50.078;13.704;2024-03-08T08:39:20;36.38;;;20.17;;
56893;SDS011;43392;50.078;13.704;2024-03-08T08:41:47;37.78;;;19.90;;
56893;SDS011;43392;50.078;13.704;2024-03-08T08:44:14;37.40;;;19.73;;
56893;SDS011;43392;50.078;13.704;2024-03-08T08:46:41;40.72;;;22.92;;
56893;SDS011;43392;50.078;13.704;2024-03-08T08:49:07;33.63;;;18.73;;
56893;SDS011;43392;50.078;13.704;2024-03-08T08:51:35;43.85;;;21.40;;
56893;SDS011;43392;50.078;13.704;2024-03-08T08:54:03;34.38;;;20.02;;
56893;SDS011;43392;50.078;13.704;2024-03-08T08:56:31;34.03;;;19.13;;
56893;SDS011;43392;50.078;13.704;2024-03-08T08:58:58;34.15;;;19.35;;
56893;SDS011;43392;50.078;13.704;2024-03-08T09:01:24;29.75;;;17.95;;
56893;SDS011;43392;50.078;13.704;2024-03-08T09:03:52;32.28;;;17.92;;
56893;SDS011;43392;50.078;13.704;2024-03-08T09:06:19;36.75;;;20.23;;
56893;SDS011;43392;50.078;13.704;2024-03-08T09:08:45;34.38;;;19.15;;
56893;SDS011;43392;50.078;13.704;2024-03-08T09:11:14;34.22;;;19.30;;
56893;SDS011;43392;50.078;13.704;2024-03-08T09:13:43;35.40;;;19.20;;
56893;SDS011;43392;50.078;13.704;2024-03-08T09:16:11;33.90;;;18.97;;
56893;SDS011;43392;50.078;13.704;2024-03-08T09:18:37;36.10;;;19.73;;
56893;SDS011;43392;50.078;13.704;2024-03-08T09:21:04;34.33;;;19.15;;
56893;SDS011;43392;50.078;13.704;2024-03-08T09:23:34;34.83;;;19.50;;
56893;SDS011;43392;50.078;13.704;2024-03-08T09:26:01;38.33;;;20.05;;
56893;SDS011;43392;50.078;13.704;2024-03-08T09:28:30;32.17;;;18.35;;
56893;SDS011;43392;50.078;13.704;2024-03-08T09:30:56;31.40;;;17.58;;
56893;SDS011;43392;50.078;13.704;2024-03-08T09:33:23;35.72;;;19.33;;
56893;SDS011;43392;50.078;13.704;2024-03-08T09:35:50;31.08;;;19.15;;
56893;SDS011;43392;50.078;13.704;2024-03-08T09:38:18;31.75;;;18.52;;
56893;SDS011;43392;50.078;13.704;2024-03-08T09:40:45;34.85;;;18.60;;
56893;SDS011;43392;50.078;13.704;2024-03-08T09:43:13;34.35;;;19.38;;
56893;SDS011;43392;50.078;13.704;2024-03-08T09:45:41;30.55;;;18.35;;
56893;SDS011;43392;50.078;13.704;2024-03-08T09:48:10;31.15;;;19.25;;
56893;SDS011;43392;50.078;13.704;2024-03-08T09:50:39;33.95;;;19.65;;
56893;SDS011;43392;50.078;13.704;2024-03-08T09:53:06;32.47;;;18.40;;
56893;SDS011;43392;50.078;13.704;2024-03-08T09:55:34;31.60;;;17.85;;
56893;SDS011;43392;50.078;13.704;2024-03-08T09:58:02;30.52;;;17.95;;
56893;SDS011;43392;50.078;13.704;2024-03-08T10:01:03;31.30;;;18.08;;
56893;SDS011;43392;50.078;13.704;2024-03-08T10:03:31;32.00;;;18.47;;
56893;SDS011;43392;50.078;13.704;2024-03-08T10:05:58;31.95;;;18.42;;
56893;SDS011;43392;50.078;13.704;2024-03-08T10:08:26;34.10;;;18.55;;
56893;SDS011;43392;50.078;13.704;2024-03-08T10:10:54;31.88;;;18.70;;
56893;SDS011;43392;50.078;13.704;2024-03-08T10:13:23;29.63;;;17.38;;
56893;SDS011;43392;50.078;13.704;2024-03-08T10:15:51;32.90;;;17.98;;
56893;SDS011;43392;50.078;13.704;2024-03-08T10:18:20;31.00;;;17.98;;
56893;SDS011;43392;50.078;13.704;2024-03-08T10:20:51;30.70;;;16.88;;
56893;SDS011;43392;50.078;13.704;2024-03-08T10:23:29;31.40;;;17.85;;
56893;SDS011;43392;50.078;13.704;2024-03-08T10:25:56;31.05;;;17.88;;
56893;SDS011;43392;50.078;13.704;2024-03-08T10:28:24;32.30;;;17.67;;
56893;SDS011;43392;50.078;13.704;2024-03-08T10:30:50;29.02;;;17.13;;
56893;SDS011;43392;50.078;13.704;2024-03-08T10:33:17;32.75;;;16.98;;
56893;SDS011;43392;50.078;13.704;2024-03-08T10:35:45;35.17;;;19.40;;
56893;SDS011;43392;50.078;13.704;2024-03-08T10:38:12;35.47;;;19.40;;
56893;SDS011;43392;50.078;13.704;2024-03-08T10:40:46;27.77;;;16.63;;
56893;SDS011;43392;50.078;13.704;2024-03-08T10:43:18;31.20;;;17.38;;
56893;SDS011;43392;50.078;13.704;2024-03-08T10:45:50;27.98;;;16.48;;
56893;SDS011;43392;50.078;13.704;2024-03-08T10:48:31;30.77;;;16.27;;
56893;SDS011;43392;50.078;13.704;2024-03-08T10:51:04;28.20;;;15.52;;
56893;SDS011;43392;50.078;13.704;2024-03-08T10:53:32;25.33;;;15.77;;
56893;SDS011;43392;50.078;13.704;2024-03-08T10:56:02;29.17;;;16.52;;
56893;SDS011;43392;50.078;13.704;2024-03-08T10:58:28;27.25;;;15.63;;
56893;SDS011;43392;50.078;13.704;2024-03-08T11:00:57;29.38;;;15.50;;
56893;SDS011;43392;50.078;13.704;2024-03-08T11:06:16;28.57;;;16.40;;
56893;SDS011;43392;50.078;13.704;2024-03-08T11:08:46;29.25;;;16.65;;
56893;SDS011;43392;50.078;13.704;2024-03-08T11:11:25;28.50;;;15.75;;
56893;SDS011;43392;50.078;13.704;2024-03-08T11:13:59;28.70;;;16.27;;
56893;SDS011;43392;50.078;13.704;2024-03-08T11:16:43;24.40;;;14.48;;
56893;SDS011;43392;50.078;13.704;2024-03-08T11:19:24;31.65;;;16.35;;
56893;SDS011;43392;50.078;13.704;2024-03-08T11:21:58;27.92;;;15.50;;
56893;SDS011;43392;50.078;13.704;2024-03-08T11:24:36;29.33;;;16.65;;
56893;SDS011;43392;50.078;13.704;2024-03-08T11:27:04;25.80;;;15.50;;
56893;SDS011;43392;50.078;13.704;2024-03-08T11:29:35;25.35;;;15.30;;
56893;SDS011;43392;50.078;13.704;2024-03-08T11:32:05;24.38;;;14.10;;
56893;SDS011;43392;50.078;13.704;2024-03-08T11:34:33;26.08;;;14.95;;
56893;SDS011;43392;50.078;13.704;2024-03-08T11:37:01;26.85;;;14.52;;
56893;SDS011;43392;50.078;13.704;2024-03-08T11:39:30;23.70;;;14.25;;
56893;SDS011;43392;50.078;13.704;2024-03-08T11:41:57;26.98;;;13.95;;
56893;SDS011;43392;50.078;13.704;2024-03-08T11:44:26;29.73;;;15.77;;
56893;SDS011;43392;50.078;13.704;2024-03-08T11:46:53;27.92;;;15.70;;
56893;SDS011;43392;50.078;13.704;2024-03-08T11:49:20;28.65;;;14.93;;
56893;SDS011;43392;50.078;13.704;2024-03-08T11:51:50;24.40;;;13.95;;
56893;SDS011;43392;50.078;13.704;2024-03-08T11:54:19;25.20;;;15.00;;
56893;SDS011;43392;50.078;13.704;2024-03-08T11:56:46;22.17;;;13.40;;
56893;SDS011;43392;50.078;13.704;2024-03-08T11:59:13;23.30;;;13.38;;
56893;SDS011;43392;50.078;13.704;2024-03-08T12:01:40;22.48;;;14.52;;
56893;SDS011;43392;50.078;13.704;2024-03-08T12:04:10;21.83;;;13.85;;
56893;SDS011;43392;50.078;13.704;2024-03-08T12:06:39;22.40;;;13.10;;
56893;SDS011;43392;50.078;13.704;2024-03-08T12:09:08;23.55;;;13.57;;
56893;SDS011;43392;50.078;13.704;2024-03-08T12:11:37;21.83;;;12.77;;
56893;SDS011;43392;50.078;13.704;2024-03-08T12:14:03;21.00;;;11.77;;
56893;SDS011;43392;50.078;13.704;2024-03-08T12:16:31;21.05;;;12.38;;
56893;SDS011;43392;50.078;13.704;2024-03-08T12:18:59;22.17;;;12.82;;
56893;SDS011;43392;50.078;13.704;2024-03-08T12:21:26;21.30;;;12.52;;
56893;SDS011;43392;50.078;13.704;2024-03-08T12:24:04;22.70;;;12.98;;
56893;SDS011;43392;50.078;13.704;2024-03-08T12:26:34;21.40;;;12.70;;
56893;SDS011;43392;50.078;13.704;2024-03-08T12:29:18;20.70;;;13.38;;
56893;SDS011;43392;50.078;13.704;2024-03-08T12:31:47;24.00;;;13.20;;
56893;SDS011;43392;50.078;13.704;2024-03-08T12:34:15;25.30;;;13.75;;
56893;SDS011;43392;50.078;13.704;2024-03-08T12:36:45;25.55;;;13.80;;
56893;SDS011;43392;50.078;13.704;2024-03-08T12:39:15;33.05;;;16.98;;
56893;SDS011;43392;50.078;13.704;2024-03-08T12:41:44;33.35;;;17.88;;
56893;SDS011;43392;50.078;13.704;2024-03-08T12:44:11;25.10;;;15.35;;
56893;SDS011;43392;50.078;13.704;2024-03-08T12:46:38;25.27;;;13.93;;
56893;SDS011;43392;50.078;13.704;2024-03-08T12:49:08;26.48;;;14.88;;
56893;SDS011;43392;50.078;13.704;2024-03-08T12:51:37;25.83;;;14.52;;
56893;SDS011;43392;50.078;13.704;2024-03-08T12:54:04;25.60;;;13.68;;
56893;SDS011;43392;50.078;13.704;2024-03-08T12:56:32;22.20;;;13.90;;
56893;SDS011;43392;50.078;13.704;2024-03-08T12:59:01;32.28;;;18.13;;
56893;SDS011;43392;50.078;13.704;2024-03-08T13:01:28;43.95;;;20.90;;
56893;SDS011;43392;50.078;13.704;2024-03-08T13:03:55;23.65;;;13.52;;
56893;SDS011;43392;50.078;13.704;2024-03-08T13:06:21;23.58;;;13.40;;
56893;SDS011;43392;50.078;13.704;2024-03-08T13:08:49;30.55;;;15.50;;
56893;SDS011;43392;50.078;13.704;2024-03-08T13:11:16;19.25;;;11.23;;
56893;SDS011;43392;50.078;13.704;2024-03-08T13:13:44;21.95;;;12.65;;
56893;SDS011;43392;50.078;13.704;2024-03-08T13:16:12;21.45;;;13.00;;
56893;SDS011;43392;50.078;13.704;2024-03-08T13:18:40;20.35;;;11.68;;
56893;SDS011;43392;50.078;13.704;2024-03-08T13:21:08;22.85;;;12.57;;
56893;SDS011;43392;50.078;13.704;2024-03-08T13:23:36;22.70;;;11.98;;
56893;SDS011;43392;50.078;13.704;2024-03-08T13:26:05;21.75;;;13.00;;
56893;SDS011;43392;50.078;13.704;2024-03-08T13:28:32;22.17;;;11.75;;
56893;SDS011;43392;50.078;13.704;2024-03-08T13:31:02;20.77;;;12.80;;
56893;SDS011;43392;50.078;13.704;2024-03-08T13:33:33;21.38;;;12.38;;
56893;SDS011;43392;50.078;13.704;2024-03-08T13:36:01;20.75;;;12.57;;
56893;SDS011;43392;50.078;13.704;2024-03-08T13:38:29;21.45;;;12.98;;
56893;SDS011;43392;50.078;13.704;2024-03-08T13:40:57;28.58;;;15.52;;
56893;SDS011;43392;50.078;13.704;2024-03-08T13:43:24;27.13;;;14.52;;
56893;SDS011;43392;50.078;13.704;2024-03-08T13:45:53;23.90;;;14.35;;
56893;SDS011;43392;50.078;13.704;2024-03-08T13:48:21;22.33;;;13.25;;
56893;SDS011;43392;50.078;13.704;2024-03-08T13:50:49;21.65;;;12.63;;
56893;SDS011;43392;50.078;13.704;2024-03-08T13:53:16;30.17;;;15.18;;
56893;SDS011;43392;50.078;13.704;2024-03-08T13:55:43;20.20;;;12.20;;
56893;SDS011;43392;50.078;13.704;2024-03-08T13:58:10;25.00;;;13.60;;
56893;SDS011;43392;50.078;13.704;2024-03-08T14:00:39;22.33;;;12.77;;
56893;SDS011;43392;50.078;13.704;2024-03-08T14:03:08;24.15;;;13.77;;
56893;SDS011;43392;50.078;13.704;2024-03-08T14:05:38;22.58;;;13.32;;
56893;SDS011;43392;50.078;13.704;2024-03-08T14:08:06;20.70;;;12.50;;
56893;SDS011;43392;50.078;13.704;2024-03-08T14:10:33;19.80;;;11.77;;
56893;SDS011;43392;50.078;13.704;2024-03-08T14:13:02;20.98;;;12.38;;
56893;SDS011;43392;50.078;13.704;2024-03-08T14:15:30;20.38;;;12.32;;
56893;SDS011;43392;50.078;13.704;2024-03-08T14:17:56;19.30;;;11.45;;